createdAt,value
2018-02-24T00:00:01.056Z,9.00
2018-02-24T00:02:28.487Z,8.70
2018-02-24T00:04:55.904Z,8.90
2018-02-24T00:07:23.464Z,9.70
2018-02-24T00:09:50.932Z,9.60
2018-02-24T00:12:18.552Z,9.60
2018-02-24T00:14:46.040Z,10.00
2018-02-24T00:17:13.593Z,10.10
2018-02-24T00:19:41.048Z,9.70
2018-02-24T00:22:08.485Z,9.60
2018-02-24T00:24:35.908Z,9.50
2018-02-24T00:27:03.336Z,9.50
2018-02-24T00:29:30.872Z,9.40
2018-02-24T00:31:58.304Z,9.50
2018-02-24T00:34:25.725Z,9.40
2018-02-24T00:36:53.240Z,9.40
2018-02-24T00:39:20.660Z,9.60
2018-02-24T00:41:48.094Z,9.60
2018-02-24T00:44:15.614Z,9.70
2018-02-24T00:46:43.047Z,9.80
2018-02-24T00:49:10.471Z,10.30
2018-02-24T00:51:37.899Z,9.80
2018-02-24T00:54:05.336Z,9.80
2018-02-24T00:56:32.803Z,9.50
2018-02-24T00:59:00.247Z,9.80
2018-02-24T01:01:27.694Z,9.70
2018-02-24T01:03:55.165Z,10.00
2018-02-24T01:06:22.620Z,9.90
2018-02-24T01:08:50.068Z,10.20
2018-02-24T01:11:17.629Z,10.10
2018-02-24T01:13:45.084Z,10.20
2018-02-24T01:16:12.540Z,10.10
2018-02-24T01:18:39.999Z,10.10
2018-02-24T01:21:07.485Z,10.30
2018-02-24T01:23:34.861Z,10.10
2018-02-24T01:26:02.289Z,10.30
2018-02-24T01:28:29.739Z,10.70
2018-02-24T01:30:57.173Z,10.10
2018-02-24T01:33:24.747Z,10.10
2018-02-24T01:35:52.167Z,10.10
2018-02-24T01:38:19.600Z,10.00
2018-02-24T01:40:47.028Z,10.10
2018-02-24T01:43:14.476Z,10.40
2018-02-24T01:45:41.900Z,10.30
2018-02-24T01:48:09.372Z,10.70
2018-02-24T01:50:41.720Z,10.30
2018-02-24T01:53:09.184Z,10.00
2018-02-24T01:55:36.604Z,10.50
2018-02-24T01:58:04.831Z,10.70
2018-02-24T02:00:32.288Z,10.70
2018-02-24T02:02:59.716Z,10.90
2018-02-24T02:05:27.152Z,11.00
2018-02-24T02:07:54.655Z,11.30
2018-02-24T02:10:22.087Z,11.20
2018-02-24T02:12:49.569Z,11.20
2018-02-24T02:15:17.005Z,11.70
2018-02-24T02:17:44.479Z,12.10
2018-02-24T02:20:11.918Z,11.50
2018-02-24T02:22:39.387Z,11.40
2018-02-24T02:25:06.831Z,11.40
2018-02-24T02:27:34.256Z,11.50
2018-02-24T02:30:01.692Z,11.70
2018-02-24T02:32:29.135Z,11.40
2018-02-24T02:34:56.566Z,11.30
2018-02-24T02:37:24.128Z,11.50
2018-02-24T02:39:51.567Z,11.70
2018-02-24T02:42:18.993Z,11.50
2018-02-24T02:44:46.500Z,11.70
2018-02-24T02:47:14.029Z,11.70
2018-02-24T02:49:41.718Z,11.60
2018-02-24T02:52:09.154Z,11.40
2018-02-24T02:54:36.585Z,11.50
2018-02-24T02:57:04.088Z,11.70
2018-02-24T02:59:31.513Z,11.60
2018-02-24T03:01:59.003Z,11.60
2018-02-24T03:04:26.761Z,11.60
2018-02-24T03:06:54.197Z,11.50
2018-02-24T03:09:21.628Z,12.20
2018-02-24T03:11:49.128Z,11.90
2018-02-24T03:14:16.591Z,12.00
2018-02-24T03:16:44.042Z,12.00
2018-02-24T03:19:11.504Z,11.80
2018-02-24T03:21:38.941Z,12.50
2018-02-24T03:24:06.418Z,12.40
2018-02-24T03:26:33.885Z,12.10
2018-02-24T03:29:01.292Z,12.00
2018-02-24T03:31:28.818Z,12.10
2018-02-24T03:33:56.438Z,12.30
2018-02-24T03:36:24.040Z,12.90
2018-02-24T03:38:51.456Z,12.60
2018-02-24T03:41:18.880Z,12.70
2018-02-24T03:43:46.347Z,13.20
2018-02-24T03:46:15.564Z,13.20
2018-02-24T03:48:43.128Z,12.90
2018-02-24T03:51:10.762Z,12.80
2018-02-24T03:53:38.191Z,12.30
2018-02-24T03:56:06.388Z,12.40
2018-02-24T03:58:33.833Z,12.30
2018-02-24T04:01:01.260Z,12.50
2018-02-24T04:03:28.709Z,12.40
2018-02-24T04:05:56.142Z,12.40
2018-02-24T04:08:23.612Z,12.60
2018-02-24T04:10:51.037Z,12.50
2018-02-24T04:13:18.525Z,12.80
2018-02-24T04:15:47.005Z,12.70
2018-02-24T04:18:14.456Z,13.00
2018-02-24T04:20:41.864Z,13.10
2018-02-24T04:23:09.300Z,13.10
2018-02-24T04:25:36.732Z,13.10
2018-02-24T04:28:04.279Z,13.10
2018-02-24T04:30:31.727Z,13.10
2018-02-24T04:32:59.144Z,13.10
2018-02-24T04:35:26.586Z,13.10
2018-02-24T04:37:55.024Z,13.10
2018-02-24T04:40:22.476Z,13.10
2018-02-24T04:42:49.908Z,13.10
2018-02-24T04:45:17.396Z,13.10
2018-02-24T04:47:45.012Z,13.60
2018-02-24T04:50:12.560Z,13.20
2018-02-24T04:52:40.056Z,13.00
2018-02-24T04:55:07.517Z,13.00
2018-02-24T04:57:34.976Z,13.00
2018-02-24T05:00:02.625Z,13.00
2018-02-24T05:02:30.096Z,13.00
2018-02-24T05:04:57.588Z,13.00
2018-02-24T05:07:25.108Z,13.00
2018-02-24T05:09:52.535Z,13.30
2018-02-24T05:12:20.016Z,13.00
2018-02-24T05:14:47.472Z,13.00
2018-02-24T05:17:14.904Z,13.00
2018-02-24T05:19:42.569Z,13.40
2018-02-24T05:22:10.044Z,13.30
2018-02-24T05:24:37.512Z,13.50
2018-02-24T05:27:04.972Z,13.30
2018-02-24T05:29:32.520Z,13.10
2018-02-24T05:31:59.976Z,13.20
2018-02-24T05:34:27.429Z,13.30
2018-02-24T05:36:54.888Z,13.60
2018-02-24T05:39:22.328Z,13.50
2018-02-24T05:41:49.762Z,13.60
2018-02-24T05:44:17.261Z,13.40
2018-02-24T05:46:44.720Z,13.40
2018-02-24T05:49:12.248Z,13.50
2018-02-24T05:51:39.933Z,13.60
2018-02-24T05:54:07.395Z,13.60
2018-02-24T05:56:34.815Z,13.40
2018-02-24T05:59:02.300Z,13.50
2018-02-24T06:01:29.730Z,13.50
2018-02-24T06:03:57.220Z,13.80
2018-02-24T06:06:24.980Z,13.50
2018-02-24T06:08:52.772Z,13.70
2018-02-24T06:11:20.204Z,14.00
2018-02-24T06:13:47.965Z,13.40
2018-02-24T06:16:15.416Z,13.70
2018-02-24T06:18:42.844Z,13.40
2018-02-24T06:21:10.331Z,13.10
2018-02-24T06:23:37.757Z,12.90
2018-02-24T06:26:05.200Z,13.00
2018-02-24T06:28:33.600Z,13.80
2018-02-24T06:31:01.031Z,13.70
2018-02-24T06:33:28.460Z,13.80
2018-02-24T06:35:55.888Z,14.00
2018-02-24T06:38:23.321Z,14.10
2018-02-24T06:40:50.837Z,14.30
2018-02-24T06:43:18.269Z,14.30
2018-02-24T06:45:45.816Z,14.30
2018-02-24T06:48:14.188Z,13.90
2018-02-24T06:50:41.616Z,13.70
2018-02-24T06:53:09.059Z,13.50
2018-02-24T06:55:36.472Z,12.90
2018-02-24T06:58:04.017Z,12.80
2018-02-24T07:00:31.440Z,12.80
2018-02-24T07:02:58.946Z,12.80
2018-02-24T07:05:26.373Z,12.80
2018-02-24T07:07:53.914Z,12.80
2018-02-24T07:10:21.502Z,12.70
2018-02-24T07:12:48.944Z,12.50
2018-02-24T07:15:16.452Z,12.60
2018-02-24T07:17:43.875Z,12.70
2018-02-24T07:20:11.312Z,12.80
2018-02-24T07:22:38.731Z,12.50
2018-02-24T07:25:06.943Z,12.40
2018-02-24T07:27:35.108Z,12.40
2018-02-24T07:30:02.796Z,12.30
2018-02-24T07:32:30.220Z,12.10
2018-02-24T07:34:57.719Z,11.80
2018-02-24T07:37:25.340Z,11.90
2018-02-24T07:39:52.819Z,11.70
2018-02-24T07:42:20.240Z,11.60
2018-02-24T07:44:48.660Z,11.70
2018-02-24T07:47:16.083Z,11.60
2018-02-24T07:49:43.557Z,12.20
2018-02-24T07:52:11.132Z,12.20
2018-02-24T07:54:38.645Z,12.10
2018-02-24T07:57:06.260Z,11.90
2018-02-24T07:59:33.705Z,11.60
2018-02-24T08:02:01.142Z,11.40
2018-02-24T08:04:28.712Z,11.40
2018-02-24T08:06:56.152Z,11.00
2018-02-24T08:09:23.582Z,10.30
2018-02-24T08:11:51.088Z,10.80
2018-02-24T08:14:18.724Z,11.10
2018-02-24T08:16:46.172Z,11.00
2018-02-24T08:19:13.764Z,10.30
2018-02-24T08:21:41.193Z,10.10
2018-02-24T08:24:08.624Z,10.10
2018-02-24T08:26:36.140Z,9.10
2018-02-24T08:29:03.592Z,14.00
2018-02-24T08:31:31.024Z,11.20
2018-02-24T08:33:58.460Z,11.50
2018-02-24T08:36:25.955Z,9.10
2018-02-24T08:38:53.388Z,8.60
2018-02-24T08:41:20.813Z,8.70
2018-02-24T08:43:49.261Z,8.20
2018-02-24T08:46:16.667Z,8.20
2018-02-24T08:48:44.167Z,7.40
2018-02-24T08:51:13.781Z,7.10
2018-02-24T08:53:41.220Z,6.80
2018-02-24T08:56:08.640Z,6.80
2018-02-24T08:58:36.056Z,7.00
2018-02-24T09:01:03.481Z,6.70
2018-02-24T09:03:30.904Z,5.90
2018-02-24T09:05:59.096Z,6.20
2018-02-24T09:08:26.526Z,6.10
2018-02-24T09:10:54.036Z,5.60
2018-02-24T09:13:21.448Z,6.00
2018-02-24T09:15:48.940Z,7.10
2018-02-24T09:18:16.372Z,4.90
2018-02-24T09:20:43.801Z,3.70
2018-02-24T09:23:11.315Z,3.80
2018-02-24T09:25:38.733Z,3.70
2018-02-24T09:28:06.217Z,3.70
2018-02-24T09:30:33.639Z,2.70
2018-02-24T09:33:01.132Z,2.50
2018-02-24T09:35:28.556Z,1.70
2018-02-24T09:37:56.052Z,1.10
2018-02-24T09:40:23.476Z,2.00
2018-02-24T09:42:50.976Z,1.50
2018-02-24T09:45:18.388Z,1.20
2018-02-24T09:47:45.871Z,1.10
2018-02-24T09:50:13.292Z,1.00
2018-02-24T09:52:40.709Z,1.00
2018-02-24T09:55:08.136Z,1.00
2018-02-24T09:57:35.560Z,1.00
2018-02-24T10:00:04.648Z,1.00
2018-02-24T10:02:32.080Z,1.00
2018-02-24T10:05:00.449Z,1.00
2018-02-24T10:07:27.884Z,1.00
2018-02-24T10:09:55.444Z,1.00
2018-02-24T10:12:22.857Z,1.00
2018-02-24T10:14:50.306Z,1.00
2018-02-24T10:17:17.801Z,1.00
2018-02-24T10:19:45.241Z,1.00
2018-02-24T10:22:12.713Z,1.00
2018-02-24T10:24:40.140Z,1.00
2018-02-24T10:27:07.572Z,1.00
2018-02-24T10:29:34.998Z,1.00
2018-02-24T10:32:02.539Z,2.30
2018-02-24T10:34:29.964Z,1.00
2018-02-24T10:36:57.396Z,1.00
2018-02-24T10:39:24.824Z,1.00
2018-02-24T10:41:52.248Z,1.00
2018-02-24T10:44:19.716Z,1.00
2018-02-24T10:46:47.279Z,1.00
2018-02-24T10:49:14.704Z,1.00
2018-02-24T10:51:42.188Z,1.00
2018-02-24T10:54:09.617Z,1.00
2018-02-24T10:56:37.071Z,1.00
2018-02-24T10:59:04.506Z,1.00
2018-02-24T11:01:32.021Z,1.00
2018-02-24T11:03:59.772Z,1.00
2018-02-24T11:06:27.204Z,1.00
2018-02-24T11:08:54.695Z,1.00
2018-02-24T11:11:22.148Z,1.00
2018-02-24T11:13:49.587Z,1.00
2018-02-24T11:16:17.024Z,1.00
2018-02-24T11:18:44.520Z,1.00
2018-02-24T11:21:11.976Z,1.00
2018-02-24T11:23:39.451Z,1.00
2018-02-24T11:26:07.190Z,1.00
2018-02-24T11:28:34.624Z,1.00
2018-02-24T11:31:02.049Z,1.00
2018-02-24T11:33:29.472Z,1.00
2018-02-24T11:35:57.013Z,1.00
2018-02-24T11:38:24.476Z,1.00
2018-02-24T11:40:51.929Z,1.00
2018-02-24T11:43:19.367Z,1.00
2018-02-24T11:45:46.840Z,1.00
2018-02-24T11:48:14.272Z,1.00
2018-02-24T11:50:41.695Z,1.00
2018-02-24T11:53:09.209Z,1.00
2018-02-24T11:55:36.673Z,1.00
2018-02-24T11:58:04.084Z,1.00
2018-02-24T12:00:31.578Z,1.00
2018-02-24T12:02:58.998Z,1.00
2018-02-24T12:05:26.492Z,1.00
2018-02-24T12:07:53.947Z,1.00
2018-02-24T12:10:21.344Z,1.00
2018-02-24T12:12:48.772Z,1.00
2018-02-24T12:15:16.324Z,1.00
2018-02-24T12:17:43.960Z,1.00
2018-02-24T12:20:11.467Z,1.00
2018-02-24T12:22:38.904Z,1.00
2018-02-24T12:25:06.328Z,1.00
2018-02-24T12:27:33.904Z,1.00
2018-02-24T12:30:01.344Z,1.00
2018-02-24T12:32:28.782Z,1.00
2018-02-24T12:34:56.283Z,1.00
2018-02-24T12:37:23.704Z,1.00
2018-02-24T12:39:51.135Z,1.00
2018-02-24T12:42:19.561Z,1.00
2018-02-24T12:44:46.991Z,1.00
2018-02-24T12:47:14.406Z,1.00
2018-02-24T12:49:41.996Z,1.00
2018-02-24T12:52:09.568Z,1.00
2018-02-24T12:54:36.997Z,1.00
2018-02-24T12:57:05.223Z,1.00
2018-02-24T12:59:32.696Z,1.00
2018-02-24T13:02:00.116Z,1.00
2018-02-24T13:04:27.588Z,1.00
2018-02-24T13:06:55.033Z,1.00
2018-02-24T13:09:22.512Z,1.00
2018-02-24T13:11:49.961Z,1.00
2018-02-24T13:14:17.427Z,1.00
2018-02-24T13:16:45.045Z,1.00
2018-02-24T13:19:13.232Z,1.00
2018-02-24T13:21:40.710Z,1.00
2018-02-24T13:24:08.120Z,1.00
2018-02-24T13:26:36.457Z,1.00
2018-02-24T13:29:04.004Z,1.00
2018-02-24T13:31:31.435Z,1.00
2018-02-24T13:33:58.916Z,1.00
2018-02-24T13:36:26.348Z,1.00
2018-02-24T13:38:53.770Z,1.00
2018-02-24T13:41:21.241Z,1.00
2018-02-24T13:43:48.636Z,1.00
2018-02-24T13:46:16.068Z,1.00
2018-02-24T13:48:43.052Z,1.00
2018-02-24T13:51:10.039Z,1.00
2018-02-24T13:53:37.964Z,1.00
2018-02-24T13:56:04.940Z,1.00
2018-02-24T13:58:32.170Z,1.00
2018-02-24T14:00:59.603Z,1.00
2018-02-24T14:03:27.072Z,1.00
2018-02-24T14:05:55.375Z,1.00
2018-02-24T14:08:22.914Z,1.00
2018-02-24T14:10:50.458Z,1.00
2018-02-24T14:13:17.900Z,1.00
2018-02-24T14:15:45.329Z,1.00
2018-02-24T14:18:12.751Z,1.00
2018-02-24T14:20:40.174Z,1.00
2018-02-24T14:23:07.600Z,1.00
2018-02-24T14:25:35.187Z,1.00
2018-02-24T14:28:02.609Z,1.00
2018-02-24T14:30:30.037Z,1.00
2018-02-24T14:32:57.557Z,1.00
2018-02-24T14:35:25.013Z,1.00
2018-02-24T14:37:52.430Z,1.00
2018-02-24T14:40:19.965Z,1.00
2018-02-24T14:42:49.216Z,1.00
2018-02-24T14:45:16.688Z,1.00
2018-02-24T14:47:44.119Z,1.00
2018-02-24T14:50:11.540Z,1.00
2018-02-24T14:52:39.045Z,1.00
2018-02-24T14:55:06.474Z,1.00
2018-02-24T14:57:33.881Z,1.00
2018-02-24T15:00:01.416Z,1.00
2018-02-24T15:02:28.832Z,1.00
2018-02-24T15:04:56.369Z,1.00
2018-02-24T15:07:23.788Z,1.00
2018-02-24T15:09:51.220Z,1.00
2018-02-24T15:12:18.718Z,1.00
2018-02-24T15:14:46.384Z,1.00
2018-02-24T15:17:13.809Z,1.00
2018-02-24T15:19:41.227Z,1.00
2018-02-24T15:22:08.645Z,1.00
2018-02-24T15:24:36.196Z,1.00
2018-02-24T15:27:03.674Z,1.00
2018-02-24T15:29:31.104Z,1.00
2018-02-24T15:31:58.664Z,1.00
2018-02-24T15:34:26.084Z,1.00
2018-02-24T15:36:53.516Z,1.00
2018-02-24T15:39:20.932Z,1.00
2018-02-24T15:41:48.484Z,1.00
2018-02-24T15:44:15.913Z,1.00
2018-02-24T15:46:43.396Z,1.00
2018-02-24T15:49:10.847Z,1.00
2018-02-24T15:51:38.347Z,1.00
2018-02-24T15:54:06.592Z,1.00
2018-02-24T15:56:34.148Z,1.00
2018-02-24T15:59:07.019Z,1.00
2018-02-24T16:01:34.584Z,1.00
2018-02-24T16:04:02.010Z,1.00
2018-02-24T16:06:29.420Z,1.00
2018-02-24T16:08:56.967Z,1.00
2018-02-24T16:11:24.396Z,1.00
2018-02-24T16:13:51.864Z,1.00
2018-02-24T16:16:19.346Z,1.00
2018-02-24T16:18:46.776Z,1.00
2018-02-24T16:21:14.204Z,1.00
2018-02-24T16:23:41.617Z,1.00
2018-02-24T16:26:09.057Z,1.00
2018-02-24T16:28:36.531Z,1.00
2018-02-24T16:31:08.012Z,1.00
2018-02-24T16:33:36.341Z,1.00
2018-02-24T16:36:03.881Z,1.00
2018-02-24T16:38:31.304Z,1.00
2018-02-24T16:40:58.740Z,1.00
2018-02-24T16:43:26.184Z,1.00
2018-02-24T16:45:53.612Z,1.00
2018-02-24T16:48:21.041Z,1.00
2018-02-24T16:50:48.624Z,1.00
2018-02-24T16:53:16.080Z,1.00
2018-02-24T16:55:43.508Z,1.00
2018-02-24T16:58:10.942Z,1.00
2018-02-24T17:00:38.365Z,1.00
2018-02-24T17:03:05.813Z,1.00
2018-02-24T17:05:33.360Z,1.00
2018-02-24T17:08:00.819Z,1.00
2018-02-24T17:10:28.246Z,1.00
2018-02-24T17:12:55.730Z,1.00
2018-02-24T17:15:23.140Z,1.00
2018-02-24T17:17:51.335Z,1.00
2018-02-24T17:20:18.916Z,1.00
2018-02-24T17:22:46.384Z,1.00
2018-02-24T17:25:13.909Z,1.00
2018-02-24T17:27:41.333Z,1.00
2018-02-24T17:30:08.743Z,1.00
2018-02-24T17:32:36.304Z,1.00
2018-02-24T17:35:03.776Z,1.00
2018-02-24T17:37:31.384Z,1.00
2018-02-24T17:39:59.588Z,1.00
2018-02-24T17:42:26.991Z,1.00
2018-02-24T17:44:54.504Z,1.00
2018-02-24T17:47:21.911Z,1.00
2018-02-24T17:49:49.348Z,1.00
2018-02-24T17:52:16.877Z,1.00
2018-02-24T17:54:44.307Z,1.00
2018-02-24T17:57:11.716Z,1.00
2018-02-24T17:59:39.244Z,1.00
2018-02-24T18:02:06.652Z,1.00
2018-02-24T18:04:34.989Z,1.00
2018-02-24T18:07:02.425Z,1.00
2018-02-24T18:09:29.995Z,1.00
2018-02-24T18:11:57.408Z,1.00
2018-02-24T18:14:24.896Z,1.00
2018-02-24T18:16:52.353Z,1.00
2018-02-24T18:19:19.820Z,1.00
2018-02-24T18:21:47.236Z,1.00
2018-02-24T18:24:14.726Z,1.00
2018-02-24T18:26:42.140Z,1.00
2018-02-24T18:29:09.639Z,1.00
2018-02-24T18:31:37.101Z,1.00
2018-02-24T18:34:04.509Z,1.00
2018-02-24T18:36:31.940Z,1.00
2018-02-24T18:38:59.344Z,1.00
2018-02-24T18:41:26.821Z,1.00
2018-02-24T18:43:54.282Z,1.00
2018-02-24T18:46:21.713Z,1.00
2018-02-24T18:48:49.294Z,1.00
2018-02-24T18:51:16.732Z,1.00
2018-02-24T18:53:44.137Z,1.00
2018-02-24T18:56:11.664Z,1.00
2018-02-24T18:58:39.068Z,1.00
2018-02-24T19:01:06.493Z,1.00
2018-02-24T19:03:33.918Z,1.00
2018-02-24T19:06:01.364Z,1.00
2018-02-24T19:08:28.840Z,1.00
2018-02-24T19:10:56.260Z,1.50
2018-02-24T19:13:24.448Z,1.00
2018-02-24T19:15:51.918Z,1.00
2018-02-24T19:18:52.873Z,3.10
2018-02-24T19:21:20.295Z,1.00
2018-02-24T19:23:47.704Z,1.00
2018-02-24T19:26:15.254Z,1.00
2018-02-24T19:28:42.669Z,1.00
2018-02-24T19:31:10.151Z,1.00
2018-02-24T19:33:37.629Z,1.00
2018-02-24T19:36:05.041Z,1.00
2018-02-24T19:38:32.470Z,1.00
2018-02-24T19:40:59.876Z,1.00
2018-02-24T19:43:27.302Z,1.00
2018-02-24T19:45:54.712Z,1.00
2018-02-24T19:48:22.168Z,1.00
2018-02-24T19:50:49.693Z,1.00
2018-02-24T19:53:17.252Z,1.00
2018-02-24T19:55:44.668Z,1.00
2018-02-24T19:58:12.146Z,1.00
2018-02-24T20:00:39.504Z,1.00
2018-02-24T20:03:07.044Z,1.00
2018-02-24T20:05:35.274Z,1.00
2018-02-24T20:08:02.914Z,1.00
2018-02-24T20:10:30.335Z,1.00
2018-02-24T20:12:57.748Z,1.00
2018-02-24T20:15:25.168Z,1.00
2018-02-24T20:17:52.734Z,1.00
2018-02-24T20:20:20.164Z,1.00
2018-02-24T20:22:47.589Z,1.00
2018-02-24T20:25:15.011Z,1.00
2018-02-24T20:27:42.431Z,1.00
2018-02-24T20:30:10.629Z,1.00
2018-02-24T20:32:38.045Z,1.00
2018-02-24T20:44:25.467Z,1.00
2018-02-24T20:46:52.884Z,1.00
2018-02-24T20:49:21.068Z,1.00
2018-02-24T20:51:48.481Z,1.00
2018-02-24T20:54:15.908Z,1.00
2018-02-24T20:56:43.473Z,1.00
2018-02-24T20:59:11.088Z,1.00
2018-02-24T21:01:39.282Z,1.00
2018-02-24T21:04:06.696Z,1.00
2018-02-24T21:06:35.030Z,1.60
2018-02-24T21:09:02.496Z,1.60
2018-02-24T21:11:30.048Z,1.00
2018-02-24T21:13:57.493Z,1.00
2018-02-24T21:16:24.901Z,1.00
2018-02-24T21:18:52.327Z,1.00
2018-02-24T21:21:19.801Z,1.00
2018-02-24T21:23:47.232Z,1.00
2018-02-24T21:26:14.683Z,1.00
2018-02-24T21:28:42.152Z,1.00
2018-02-24T21:31:09.620Z,1.00
2018-02-24T21:33:37.040Z,1.00
2018-02-24T21:36:04.505Z,1.00
2018-02-24T21:38:31.965Z,1.00
2018-02-24T21:40:59.451Z,1.00
2018-02-24T21:43:26.872Z,1.00
2018-02-24T21:45:54.340Z,1.00
2018-02-24T21:48:22.091Z,1.00
2018-02-24T21:50:49.656Z,3.40
2018-02-24T21:53:17.077Z,1.80
2018-02-24T21:55:44.489Z,1.60
2018-02-24T21:58:12.024Z,1.60
2018-02-24T22:00:39.440Z,1.30
2018-02-24T22:03:06.859Z,1.50
2018-02-24T22:05:34.330Z,1.60
2018-02-24T22:08:01.752Z,1.50
2018-02-24T22:10:29.308Z,1.30
2018-02-24T22:12:56.742Z,3.70
2018-02-24T22:15:24.216Z,2.00
2018-02-24T22:17:51.696Z,2.40
2018-02-24T22:20:19.117Z,1.90
2018-02-24T22:22:46.532Z,1.50
2018-02-24T22:25:13.966Z,1.60
2018-02-24T22:27:41.381Z,1.10
2018-02-24T22:30:08.956Z,1.20
2018-02-24T22:32:36.404Z,1.60
2018-02-24T22:35:03.852Z,7.50
2018-02-24T22:37:31.330Z,2.90
2018-02-24T22:39:58.765Z,2.30
2018-02-24T22:42:26.238Z,1.60
2018-02-24T22:44:53.673Z,1.50
2018-02-24T22:47:21.088Z,1.60
2018-02-24T22:49:48.532Z,2.60
2018-02-24T22:52:15.965Z,2.10
2018-02-24T22:54:43.516Z,1.10
2018-02-24T22:57:10.961Z,1.20
2018-02-24T22:59:38.380Z,1.60
2018-02-24T23:02:06.092Z,1.60
2018-02-24T23:59:37.497Z,3.70
